Flight Track Log - Related Links

Times and Time Zones

All times are in EDT time to prevent confusion due to time zone crossing. See the ASQ6041 flight status page for this flight to view local times or setup timezone preferences in your user account.

Time Position Orientation Groundspeed Altitude Reporting Facility
EDT Latitude Longitude Course Direction KTS MPH feet Rate Location/Type
Sun 02:32:00 PM 38.7483 -106.6110 49° Northeast  Level FlightAware Approximate
Sun 02:33:00 PM 38.8105 -106.5190 47° Northeast  Level FlightAware Approximate
Sun 02:34:00 PM 38.8753 -106.4300 47° Northeast  Level FlightAware Approximate
Sun 02:34:34 PM 38.4594 -107.0733 69° East 319 367 17,100  Level Denver Center
Sun 02:35:00 PM 38.9431 -106.3500 North  Level FlightAware Approximate
Sun 02:35:36 PM 38.5114 -106.9622 59° Northeast 355 409 17,800  Level Denver Center
Sun 02:36:00 PM 39.0074 -106.2641 49° Northeast  Level FlightAware Approximate
Sun 02:36:38 PM 38.5817 -106.8625 48° Northeast 372 428 19,100  Level Denver Center
Sun 02:37:00 PM 39.0691 -106.1714 49° Northeast  Level FlightAware Approximate
Sun 02:37:40 PM 38.6539 -106.7614 48° Northeast 381 438 20,400  Level Denver Center
Sun 02:38:00 PM 39.1259 -106.0752 60° Northeast  Level FlightAware Approximate
Sun 02:38:43 PM 38.7244 -106.6558 49° Northeast 387 445 21,700  Level Denver Center
Sun 02:39:45 PM 38.8019 -106.5217 53° Northeast 390 449 23,300 1,355 Climbing Denver Center
Sun 02:40:47 PM 38.8797 -106.4214 45° Northeast 401 461 24,500 871 Climbing Denver Center
Sun 02:41:49 PM 38.9544 -106.3222 46° Northeast 398 458 25,100 726 Climbing Denver Center
Sun 02:42:51 PM 39.0414 -106.1989 48° Northeast 415 478 26,000 435 Climbing Denver Center
Sun 02:43:53 PM 39.1128 -106.0578 57° Northeast 440 506 26,000  Level Denver Center
Sun 02:44:56 PM 39.1797 -105.9206 58° Northeast 452 520 26,000 -768 Level Denver Center
Sun 02:45:58 PM 39.2472 -105.7842 57° Northeast 452 520 24,400 -1,935 Descending Denver Center
Sun 02:47:00 PM 39.3111 -105.6550 57° Northeast 432 497 22,000 -2,129 Descending Denver Center
Sun 02:48:02 PM 39.3678 -105.5394 58° Northeast 387 445 20,000 -1,984 Descending Denver Center
Sun 02:49:04 PM 39.3983 -105.4058 73° East 359 413 17,900 -1,887 Descending Denver Center
Sun 02:50:06 PM 39.4053 -105.2667 86° East 360 414 16,100 -1,742 Descending Denver Center
Sun 02:51:08 PM 39.4111 -105.1317 87° East 376 433 14,300 -1,452 Descending Denver Center
Sun 02:52:10 PM 39.4172 -104.9881 87° East 374 430 13,100 -919 Descending Denver Center
Sun 02:53:12 PM 39.4336 -104.8622 80° East 356 410 12,400 -968 Descending Denver Center
Sun 02:54:14 PM 39.4678 -104.7469 69° East 330 380 11,100 -1,161 Descending Denver Center
Sun 02:55:16 PM 39.5394 -104.6944 29° Northeast 301 346 10,000 -1,258 Descending Denver Center
Sun 02:56:18 PM 39.6103 -104.6442 29° Northeast 274 315 8,500 -960 Descending Denver Center
Sun 02:57:21 PM 39.6756 -104.6428 North 231 266 8,000 -476 Descending Denver Center

Login

Don't have an account? Register now (free) for customized features, flight alerts, and more!